Aérodrome :
LOGIN :

S'inscrire | Disclaimer

   EN    FR    IT 

 










Légende :    VFR   VFR Marginal   IFR   IFR Intensif   IFR Très Intensif
Visi : 
Plafond : 
>= 8 km
>= 3000ft
5 à 8 km
1000 à 3000 ft
1500m à 5 km
500 à 1000 ft
800 à 1500m
200 à 500 ft
< 800m
< 200 ft
Symboles :   Orages  Brouillard  Fortes neiges  Fortes précipitations  Vent > 20 kt
SIGMETs :   Divers  Orages  Givrage  Turbulence  Onde Orograph.  Cendres Volcan.






- Altitude de l'aérodrome : 505 ft
- Code IATA : SXB


LFST - Strasbourg

DERNIER METAR :
  • 131900Z AUTO 21004KT CAVOK 24/17 Q1013 TEMPO FEW040 FEW060CB BKN070

METARs EXPIRÉS :
  • 131830Z AUTO 21005KT CAVOK 25/17 Q1013 TEMPO FEW040 FEW060CB BKN070
  • 131800Z AUTO 20004KT CAVOK 26/17 Q1013 TEMPO FEW040 FEW060CB BKN070
  • 131730Z AUTO 20006KT 140V230 9999 ///TCU 27/17 Q1013 TEMPO FEW040 FEW060CB BKN070
  • 131700Z AUTO 24007KT 200V270 9999 ///TCU 29/17 Q1014 TEMPO 21015G25KT TSRA FEW040 FEW060CB BKN080
  • 131630Z AUTO 23005KT 9999 ///CB 30/16 Q1014 TEMPO 21015G25KT TSRA

TAF TAF LFST
Valide du 13 à 18h jusqu'au 14 à 18h UTC


131700Z 1318/1418 17006KT CAVOK
TEMPO 1318/1417 -SHRA FEW040 FEW060CB BKN070
PROB40
TEMPO 1408/1416 27015G25KT 5000 TSRA SCT035CB



MET'MAP, la Météo Aéronautique d'un coup d'oeil ! - Copyright ORBIFLY Décembre 2007 - Disclaimer

ORBIFLY MET'MAP TEAM :

Programmation & Développement : Alexandra Zaïnal
Sur une idée originale de : Baudouin d'Aumeries
Assistance à la programmation : Marc-Olivier Méhu
Soutien technique & logistique : Manuel Goepfert

Contact : metmap@orbifly.com




SOURCES & CREDITS :

   NOAA